Terminal Aerodrome Forecast
Issued by NWS Mt. Holly, NJ

Home | Current Version | Previous Version | Text Only | Print | Product List | Glossary On
Versions: 1 2 3 4 5 6 7 8 9 10 11 12
000
FTUS41 KPHI 222334
TAFACY
TAF
KACY 222334Z 2300/2324 VRB02KT P6SM BKN250
     FM230600 18007KT P6SM BKN080 WS020/20035KT
     FM230900 18009KT P6SM OVC012 WS020/20045KT
     FM231100 18012KT 3SM -SHRA BR OVC008 WS020/21045KT
     FM231400 20018G28KT 3SM SHRA OVC008 WS020/22050KT
     FM231800 21018G30KT 4SM SHRA OVC012
     FM232000 24012G22KT 4SM SHRA BKN025
     FM232100 24010KT P6SM BKN030
     FM232300 27008KT P6SM SCT045=

USA.gov is the U.S. government's official web portal to all federal, state and local government web resources and services.